Novomar — 5BCT2 — position and weather

sailwx.info

Track history (hours):
 
Tides and Currents Weather Stations Pressure Air Temp Water Temp Dewpoint Dewpoint Depression Visibility Wind Speed Wind Dir Waves Ship Positions

Novomar

Last reported at 2015-Jun-25 08:14 UTC. Time now 2015-Jul-01 06:35 UTC.
Position N 55°41' E 015°33'.

Length 89 m; draft 3.3 m.

Type: Cargo ship. MMSI: 210974000.

Date/timePositionNaut miles runAvg speedWind from/ knotsBaromVisibWave heightAir tempDewpointWater temp
2015-Jun-25 08:14N 55°41' E 015°33'710.6
2015-Jun-25 07:32N 55°37' E 015°22'1110.4
2015-Jun-25 06:31N 55°32' E 015°05'1010.0
2015-Jun-25 05:33N 55°27' E 014°51'37 9.3
2015-Jun-25 01:33N 55°10' E 013°52'10 9.3
2015-Jun-25 00:32N 55°12' E 013°36'22 9.9
2015-Jun-24 22:17N 55°15' E 012°57'810.0
2015-Jun-24 21:32N 55°17' E 012°45'8 7.9
2015-Jun-24 20:34N 55°24' E 012°40'10 9.7
2015-Jun-24 19:34N 55°33' E 012°42'1110.7
2015-Jun-24 18:34N 55°44' E 012°41'1010.0
2015-Jun-24 17:33N 55°54' E 012°38'1010.0
2015-Jun-24 16:34N 56°04' E 012°37'9 8.9
2015-Jun-24 15:33N 56°12' E 012°29'2 1.8
2015-Jun-24 14:33N 56°12' E 012°33'0 0.0
2015-Jun-24 13:30N 56°12' E 012°33'0 0.0
2015-Jun-24 12:21N 56°12' E 012°33'0 0.0
2015-Jun-24 11:18N 56°12' E 012°33'0 0.0
2015-Jun-24 09:21N 56°12' E 012°33'0 0.0
2015-Jun-24 05:24N 56°12' E 012°33'0 0.0
2015-Jun-24 04:04N 56°12' E 012°33'0 0.5
2015-Jun-24 03:33N 56°12' E 012°32'6 5.8
2015-Jun-24 02:33N 56°06' E 012°35'7 7.3
2015-Jun-24 01:33N 55°60' E 012°41'7 7.2
2015-Jun-24 00:33N 55°53' E 012°44'7 7.5
2015-Jun-23 23:33N 55°46' E 012°42'8 7.8
2015-Jun-23 22:33N 55°38' E 012°42'9 8.7
2015-Jun-23 21:33N 55°29' E 012°43'8 8.2
2015-Jun-23 20:33N 55°21' E 012°41'7 7.1
2015-Jun-23 19:33N 55°16' E 012°50'4 8.1
2015-Jun-23 19:05N 55°16' E 012°57'188 7.9
2015-Jun-22 19:22N 57°09' E 017°27'17 9.3
2015-Jun-22 17:31N 57°25' E 017°39'  
Track history (hours):
 
Tides and Currents Weather Stations Pressure Air Temp Water Temp Dewpoint Dewpoint Depression Visibility Wind Speed Wind Dir Waves Ship Positions

Novomar

Last reported at 2015-Jun-25 08:14 UTC. Time now 2015-Jul-01 06:35 UTC.
Position N 55°41' E 015°33'.

Length 89 m; draft 3.3 m.

Type: Cargo ship. MMSI: 210974000.

Date/timePositionNaut miles runAvg speedWind from/ knotsBaromVisibWave heightAir tempDewpointWater temp
2015-Jun-25 08:14N 55°41' E 015°33'710.6
2015-Jun-25 07:32N 55°37' E 015°22'1110.4
2015-Jun-25 06:31N 55°32' E 015°05'1010.0
2015-Jun-25 05:33N 55°27' E 014°51'37 9.3
2015-Jun-25 01:33N 55°10' E 013°52'10 9.3
2015-Jun-25 00:32N 55°12' E 013°36'22 9.9
2015-Jun-24 22:17N 55°15' E 012°57'810.0
2015-Jun-24 21:32N 55°17' E 012°45'8 7.9
2015-Jun-24 20:34N 55°24' E 012°40'10 9.7
2015-Jun-24 19:34N 55°33' E 012°42'1110.7
2015-Jun-24 18:34N 55°44' E 012°41'1010.0
2015-Jun-24 17:33N 55°54' E 012°38'1010.0
2015-Jun-24 16:34N 56°04' E 012°37'9 8.9
2015-Jun-24 15:33N 56°12' E 012°29'2 1.8
2015-Jun-24 14:33N 56°12' E 012°33'0 0.0
2015-Jun-24 13:30N 56°12' E 012°33'0 0.0
2015-Jun-24 12:21N 56°12' E 012°33'0 0.0
2015-Jun-24 11:18N 56°12' E 012°33'0 0.0
2015-Jun-24 09:21N 56°12' E 012°33'0 0.0
2015-Jun-24 05:24N 56°12' E 012°33'0 0.0
2015-Jun-24 04:04N 56°12' E 012°33'0 0.5
2015-Jun-24 03:33N 56°12' E 012°32'6 5.8
2015-Jun-24 02:33N 56°06' E 012°35'7 7.3
2015-Jun-24 01:33N 55°60' E 012°41'7 7.2
2015-Jun-24 00:33N 55°53' E 012°44'7 7.5
2015-Jun-23 23:33N 55°46' E 012°42'8 7.8
2015-Jun-23 22:33N 55°38' E 012°42'9 8.7
2015-Jun-23 21:33N 55°29' E 012°43'8 8.2
2015-Jun-23 20:33N 55°21' E 012°41'7 7.1
2015-Jun-23 19:33N 55°16' E 012°50'4 8.1
2015-Jun-23 19:05N 55°16' E 012°57'188 7.9
2015-Jun-22 19:22N 57°09' E 017°27'17 9.3
2015-Jun-22 17:31N 57°25' E 017°39'  

Dump ship's entire track history